createdAt,value
2022-11-04T00:01:26.756Z,152878.47
2022-11-04T00:03:54.953Z,152862.97
2022-11-04T00:06:23.164Z,152855.28
2022-11-04T00:08:52.601Z,152860.41
2022-11-04T00:11:37.860Z,152848.81
2022-11-04T00:14:06.007Z,152868.16
2022-11-04T00:16:51.214Z,152868.16
2022-11-04T00:19:18.853Z,152861.69
2022-11-04T00:22:04.076Z,152855.28
2022-11-04T00:24:50.600Z,152834.63
2022-11-04T00:27:37.801Z,152824.31
2022-11-04T00:30:08.052Z,152842.38
2022-11-04T00:32:53.672Z,152847.50
2022-11-04T00:35:21.687Z,152853.97
2022-11-04T00:37:49.154Z,152847.50
2022-11-04T00:40:18.275Z,152846.22
2022-11-04T00:42:46.917Z,152847.50
2022-11-04T00:45:14.409Z,152821.75
2022-11-04T00:47:41.878Z,152820.44
2022-11-04T00:50:10.029Z,152828.22
2022-11-04T00:52:37.794Z,152811.44
2022-11-04T00:55:05.991Z,152841.09
2022-11-04T00:57:34.771Z,152839.78
2022-11-04T01:00:02.281Z,152832.09
2022-11-04T01:02:29.908Z,152844.97
2022-11-04T01:04:57.471Z,152850.09
2022-11-04T01:07:24.940Z,152847.50
2022-11-04T01:09:52.656Z,152852.69
2022-11-04T01:12:20.115Z,152862.97
2022-11-04T01:14:49.727Z,152850.09
2022-11-04T01:17:17.387Z,152833.31
2022-11-04T01:19:44.853Z,152844.97
2022-11-04T01:22:12.319Z,152842.38
2022-11-04T01:24:39.789Z,152852.69
2022-11-04T01:27:07.325Z,152847.50
2022-11-04T01:29:34.869Z,152859.16
2022-11-04T01:32:03.691Z,152865.56
2022-11-04T01:34:31.449Z,152850.09
2022-11-04T01:36:59.464Z,152861.69
2022-11-04T01:39:26.969Z,152853.97
2022-11-04T01:41:54.504Z,152847.50
2022-11-04T01:44:48.453Z,152865.56
2022-11-04T01:47:19.383Z,152869.44
2022-11-04T01:49:50.195Z,152872.03
2022-11-04T01:52:21.682Z,152878.47
2022-11-04T01:54:53.686Z,152868.16
2022-11-04T01:57:26.695Z,152878.47
2022-11-04T01:59:54.266Z,152883.63
2022-11-04T02:02:23.135Z,152878.47
2022-11-04T02:04:51.048Z,152917.16
2022-11-04T02:07:18.514Z,152944.25
2022-11-04T02:09:46.114Z,152932.63
2022-11-04T02:12:30.965Z,152942.94
2022-11-04T02:14:59.193Z,152927.47
2022-11-04T02:17:42.272Z,152935.22
2022-11-04T02:20:33.543Z,152953.28
2022-11-04T02:23:46.914Z,152945.53
2022-11-04T02:26:48.995Z,152958.41
2022-11-04T02:29:32.533Z,152958.41
2022-11-04T02:32:12.366Z,152955.84
2022-11-04T02:34:51.935Z,152932.63
2022-11-04T02:37:29.582Z,152948.13
2022-11-04T02:40:06.177Z,152935.22
2022-11-04T02:42:41.035Z,152942.94
2022-11-04T02:45:18.313Z,152940.41
2022-11-04T02:47:57.341Z,152932.63
2022-11-04T02:50:30.876Z,152930.06
2022-11-04T02:53:03.921Z,152950.72
2022-11-04T02:55:36.643Z,152963.59
2022-11-04T02:58:08.103Z,152977.78
2022-11-04T03:00:40.745Z,152994.50
2022-11-04T03:03:12.010Z,153020.34
2022-11-04T03:05:44.101Z,153002.25
2022-11-04T03:08:16.621Z,152963.59
2022-11-04T03:10:46.904Z,152961.00
2022-11-04T03:13:19.126Z,152971.31
2022-11-04T03:15:51.938Z,152937.81
2022-11-04T03:18:26.012Z,152952.00
2022-11-04T03:20:57.574Z,152922.34
2022-11-04T03:23:25.215Z,152939.13
2022-11-04T03:25:59.041Z,152922.34
2022-11-04T03:28:38.772Z,152573.88
2022-11-04T03:31:12.670Z,147856.00
2022-11-04T03:33:44.741Z,152973.91
2022-11-04T03:36:12.368Z,152797.56
2022-11-04T03:38:40.189Z,153000.97
2022-11-04T03:41:12.823Z,153017.75
2022-11-04T03:43:42.639Z,152976.50
2022-11-04T03:46:11.825Z,152912.03
2022-11-04T03:48:39.817Z,152877.16
2022-11-04T03:51:07.611Z,146980.38
2022-11-04T03:53:35.155Z,143467.59
2022-11-04T03:56:19.435Z,140339.59
2022-11-04T03:59:04.591Z,133011.94
2022-11-04T04:01:44.483Z,124714.00
2022-11-04T04:04:17.493Z,124035.59
2022-11-04T04:06:46.945Z,122314.97
2022-11-04T04:09:21.588Z,116818.09
2022-11-04T04:11:55.427Z,116152.22
2022-11-04T04:14:40.510Z,118196.31
2022-11-04T04:17:16.839Z,115772.41
2022-11-04T04:19:48.956Z,116810.25
2022-11-04T04:22:20.413Z,112707.09
2022-11-04T04:25:08.235Z,116823.00
2022-11-04T04:27:36.779Z,115106.63
2022-11-04T04:30:08.034Z,114411.81
2022-11-04T04:32:39.730Z,114436.88
2022-11-04T04:35:26.842Z,115151.22
2022-11-04T04:38:16.682Z,117253.63
2022-11-04T04:41:05.357Z,121739.22
2022-11-04T04:43:50.510Z,124518.41
2022-11-04T04:46:17.977Z,128651.25
2022-11-04T04:48:46.786Z,130707.75
2022-11-04T04:51:14.539Z,126590.16
2022-11-04T04:53:41.990Z,131750.75
2022-11-04T04:56:09.604Z,125534.00
2022-11-04T04:58:37.053Z,129009.56
2022-11-04T05:01:04.906Z,132810.91
2022-11-04T05:03:32.421Z,135580.69
2022-11-04T05:06:01.662Z,134563.44
2022-11-04T05:08:29.101Z,139066.38
2022-11-04T05:10:56.565Z,140102.03
2022-11-04T05:13:26.865Z,136316.28
2022-11-04T05:15:54.636Z,141521.41
2022-11-04T05:18:22.093Z,137365.19
2022-11-04T05:20:49.906Z,142226.75
2022-11-04T05:23:18.730Z,140504.06
2022-11-04T05:25:46.485Z,140842.41
2022-11-04T05:28:14.218Z,142245.91
2022-11-04T05:30:41.744Z,141192.59
2022-11-04T05:33:09.336Z,133903.28
2022-11-04T05:35:36.978Z,131480.53
2022-11-04T05:38:04.460Z,126959.81
2022-11-04T05:40:33.253Z,122814.28
2022-11-04T05:43:01.422Z,119358.69
2022-11-04T05:45:29.833Z,115897.25
2022-11-04T05:47:59.395Z,110041.81
2022-11-04T05:50:27.046Z,111064.53
2022-11-04T05:52:54.685Z,102098.69
2022-11-04T05:55:22.196Z,98327.81
2022-11-04T05:57:51.150Z,95592.09
2022-11-04T06:00:18.990Z,93538.44
2022-11-04T06:02:46.555Z,93881.56
2022-11-04T06:05:14.268Z,91849.91
2022-11-04T06:07:41.710Z,89798.25
2022-11-04T06:10:10.284Z,89463.88
2022-11-04T06:12:37.755Z,88795.06
2022-11-04T06:15:07.702Z,88118.72
2022-11-04T06:17:35.152Z,85395.84
2022-11-04T06:20:04.425Z,86742.78
2022-11-04T06:22:31.874Z,86047.91
2022-11-04T06:24:59.447Z,84686.31
2022-11-04T06:27:26.956Z,85038.50
2022-11-04T06:29:54.568Z,84344.22
2022-11-04T06:32:23.406Z,85710.00
2022-11-04T06:34:50.924Z,83312.56
2022-11-04T06:37:18.366Z,82631.59
2022-11-04T06:39:45.880Z,86381.47
2022-11-04T06:42:13.351Z,81945.94
2022-11-04T06:44:42.327Z,81943.84
2022-11-04T06:47:10.890Z,79911.78
2022-11-04T06:49:39.863Z,79927.31
2022-11-04T06:52:07.401Z,77596.75
2022-11-04T06:54:38.296Z,78618.94
2022-11-04T06:57:05.752Z,83729.31
2022-11-04T06:59:33.406Z,84422.50
2022-11-04T07:02:00.940Z,84413.97
2022-11-04T07:04:28.728Z,86801.34
2022-11-04T07:06:57.506Z,86458.72
2022-11-04T07:09:25.019Z,85093.03
2022-11-04T07:11:52.538Z,85783.75
2022-11-04T07:14:21.296Z,83743.44
2022-11-04T07:16:50.851Z,83430.66
2022-11-04T07:19:18.594Z,85832.91
2022-11-04T07:21:46.058Z,90609.66
2022-11-04T07:24:15.187Z,89939.88
2022-11-04T07:26:43.067Z,93735.59
2022-11-04T07:29:11.118Z,99221.34
2022-11-04T07:31:38.799Z,98181.59
2022-11-04T07:34:06.786Z,97503.75
2022-11-04T07:36:34.249Z,96143.34
2022-11-04T07:39:02.149Z,99921.28
2022-11-04T07:41:30.926Z,103015.69
2022-11-04T07:43:59.036Z,103039.94
2022-11-04T07:46:26.510Z,107852.31
2022-11-04T07:48:53.982Z,107518.50
2022-11-04T07:51:21.980Z,105459.03
2022-11-04T07:53:49.470Z,109254.38
2022-11-04T07:56:18.894Z,113041.50
2022-11-04T07:58:48.118Z,117861.25
2022-11-04T08:01:18.270Z,122355.31
2022-11-04T08:03:46.034Z,122735.78
2022-11-04T08:06:15.205Z,129269.31
2022-11-04T08:08:43.488Z,131338.09
2022-11-04T08:11:17.471Z,132718.59
2022-11-04T08:13:48.014Z,130272.34
2022-11-04T08:16:17.635Z,124712.41
2022-11-04T08:18:45.889Z,123318.78
2022-11-04T08:21:13.822Z,124341.97
2022-11-04T08:23:41.570Z,128835.50
2022-11-04T08:26:10.552Z,119828.03
2022-11-04T08:28:38.692Z,113289.63
2022-11-04T08:31:10.608Z,109509.94
2022-11-04T08:33:38.113Z,106750.16
2022-11-04T08:36:09.063Z,98851.16
2022-11-04T08:38:36.787Z,100932.31
2022-11-04T08:41:06.871Z,99919.59
2022-11-04T08:43:35.018Z,93083.34
2022-11-04T08:46:03.180Z,95133.59
2022-11-04T08:48:32.021Z,92059.00
2022-11-04T08:50:59.985Z,91032.63
2022-11-04T08:53:27.684Z,91701.41
2022-11-04T08:55:55.935Z,92041.97
2022-11-04T08:58:24.683Z,92069.09
2022-11-04T09:00:52.439Z,95839.53
2022-11-04T09:03:20.192Z,94130.91
2022-11-04T09:05:49.141Z,101329.81
2022-11-04T09:08:17.846Z,102372.34
2022-11-04T09:10:47.551Z,108903.06
2022-11-04T09:13:16.863Z,108561.88
2022-11-04T09:15:44.552Z,108533.59
2022-11-04T09:18:12.210Z,117116.44
2022-11-04T09:20:42.042Z,118148.44
2022-11-04T09:23:11.179Z,110232.78
2022-11-04T09:25:38.980Z,115693.47
2022-11-04T09:28:06.765Z,110524.66
2022-11-04T09:30:34.366Z,107457.00
2022-11-04T09:33:01.848Z,110861.03
2022-11-04T09:35:29.302Z,107068.38
2022-11-04T09:37:57.037Z,102628.44
2022-11-04T09:40:26.772Z,98862.78
2022-11-04T09:43:11.214Z,99548.22
2022-11-04T09:45:40.736Z,98518.44
2022-11-04T09:48:12.611Z,98488.59
2022-11-04T09:50:46.358Z,92331.22
2022-11-04T09:53:18.832Z,87193.91
2022-11-04T09:55:53.909Z,88549.34
2022-11-04T09:58:21.517Z,87186.56
2022-11-04T10:00:55.468Z,81396.28
2022-11-04T10:03:40.778Z,82748.75
2022-11-04T10:06:25.577Z,80690.19
2022-11-04T10:09:05.189Z,81025.41
2022-11-04T10:11:43.311Z,78973.94
2022-11-04T10:14:40.283Z,78287.88
2022-11-04T10:17:22.501Z,76922.81
2022-11-04T10:20:02.478Z,76227.03
2022-11-04T10:22:33.602Z,73534.94
2022-11-04T10:25:09.827Z,72509.22
2022-11-04T10:27:42.639Z,70810.69
2022-11-04T10:30:16.908Z,71820.00
2022-11-04T10:32:59.528Z,70815.47
2022-11-04T10:35:34.316Z,71822.44
2022-11-04T10:38:15.270Z,67421.88
2022-11-04T10:40:46.630Z,71810.88
2022-11-04T10:43:19.608Z,70107.78
2022-11-04T10:45:56.454Z,70440.09
2022-11-04T10:48:30.980Z,70785.56
2022-11-04T10:50:59.639Z,73829.94
2022-11-04T10:53:28.908Z,73504.50
2022-11-04T10:56:03.590Z,70772.41
2022-11-04T10:58:35.629Z,72794.88
2022-11-04T11:01:24.308Z,74148.44
2022-11-04T11:03:52.195Z,73138.78
2022-11-04T11:06:28.027Z,73471.63
2022-11-04T11:09:00.222Z,73798.78
2022-11-04T11:11:40.565Z,71096.84
2022-11-04T11:14:19.668Z,72783.84
2022-11-04T11:16:48.095Z,72108.50
2022-11-04T11:19:18.854Z,71435.03
2022-11-04T11:21:49.391Z,69743.03
2022-11-04T11:24:21.334Z,70422.25
2022-11-04T11:26:51.767Z,68380.94
2022-11-04T11:29:26.312Z,70417.50
2022-11-04T11:31:55.614Z,68707.31
2022-11-04T11:34:27.473Z,68034.94
2022-11-04T11:36:57.443Z,68039.56
2022-11-04T11:39:27.999Z,68052.22
2022-11-04T11:41:59.316Z,68717.78
2022-11-04T11:44:32.822Z,68376.34
2022-11-04T11:47:03.137Z,66343.44
2022-11-04T11:49:35.236Z,67699.34
2022-11-04T11:52:25.622Z,67359.19
2022-11-04T11:54:55.930Z,66359.16
2022-11-04T11:57:36.862Z,66697.03
2022-11-04T12:03:01.875Z,66683.50
2022-11-04T12:11:35.877Z,67682.75
2022-11-04T12:14:06.984Z,67338.69
2022-11-04T12:16:44.742Z,67002.63
2022-11-04T12:19:26.841Z,66325.50
2022-11-04T12:22:02.327Z,65988.94
2022-11-04T12:24:39.342Z,65990.59
2022-11-04T12:27:13.964Z,65657.94
2022-11-04T12:30:00.220Z,65994.53
2022-11-04T12:32:36.962Z,67350.06
2022-11-04T12:35:21.225Z,70383.59
2022-11-04T12:37:59.898Z,71403.06
2022-11-04T12:40:31.318Z,71416.94
2022-11-04T12:43:15.641Z,73443.72
2022-11-04T12:45:53.938Z,72786.28
2022-11-04T12:48:53.070Z,75162.56
2022-11-04T12:51:33.486Z,75497.91
2022-11-04T12:54:21.966Z,77527.38
2022-11-04T12:56:55.876Z,76519.97
2022-11-04T12:59:44.228Z,77859.44
2022-11-04T13:02:21.771Z,77173.13
2022-11-04T13:05:00.122Z,77166.59
2022-11-04T13:07:32.208Z,76142.16
2022-11-04T13:10:06.227Z,75808.25
2022-11-04T13:12:39.143Z,79198.06
2022-11-04T13:15:16.413Z,79210.09
2022-11-04T13:17:46.475Z,79551.47
2022-11-04T13:20:27.443Z,79887.50
2022-11-04T13:23:08.048Z,77499.22
2022-11-04T13:25:40.371Z,79891.56
2022-11-04T13:28:12.601Z,80580.00
2022-11-04T13:30:45.963Z,82255.78
2022-11-04T13:33:20.429Z,80571.84
2022-11-04T13:35:57.486Z,80551.47
2022-11-04T13:38:29.400Z,82248.84
2022-11-04T13:41:12.767Z,82596.75
2022-11-04T13:43:50.246Z,82268.28
2022-11-04T13:46:23.605Z,81584.25
2022-11-04T13:48:56.128Z,81237.88
2022-11-04T13:51:34.640Z,80559.63
2022-11-04T13:54:02.741Z,80560.97
2022-11-04T13:56:34.869Z,79887.50
2022-11-04T13:59:08.701Z,78860.75
2022-11-04T14:01:36.543Z,78494.97
2022-11-04T14:04:18.893Z,77825.94
2022-11-04T14:07:00.105Z,77484.19
2022-11-04T14:09:37.659Z,78508.22
2022-11-04T14:12:28.292Z,79181.34
2022-11-04T14:14:57.549Z,79198.72
2022-11-04T14:18:02.542Z,79870.69
2022-11-04T14:20:33.616Z,79176.69
2022-11-04T14:23:03.604Z,77834.44
2022-11-04T14:25:34.373Z,79527.31
2022-11-04T14:28:03.780Z,79515.25
2022-11-04T14:30:38.261Z,78506.22
2022-11-04T14:33:09.559Z,78838.81
2022-11-04T14:35:37.673Z,78157.16
2022-11-04T14:38:25.101Z,77472.41
2022-11-04T14:41:12.688Z,74782.41
2022-11-04T14:43:44.009Z,76441.19
2022-11-04T14:46:15.350Z,75432.28
2022-11-04T14:48:46.932Z,73749.59
2022-11-04T14:51:24.921Z,74403.28
2022-11-04T14:53:56.767Z,74392.59
2022-11-04T14:56:26.842Z,74386.31
2022-11-04T14:58:59.469Z,73043.09
2022-11-04T15:01:34.229Z,72033.00
2022-11-04T15:04:13.469Z,72029.34
2022-11-04T15:06:54.750Z,72020.84
2022-11-04T15:09:26.445Z,72345.22
2022-11-04T15:12:20.615Z,71324.69
2022-11-04T15:14:50.140Z,71672.06
2022-11-04T15:17:21.797Z,72678.13
2022-11-04T15:19:51.920Z,73341.41
2022-11-04T15:22:20.307Z,75021.16
2022-11-04T15:24:50.551Z,75697.56
2022-11-04T15:27:20.112Z,75336.72
2022-11-04T15:29:54.810Z,75014.81
2022-11-04T15:32:22.420Z,75677.09
2022-11-04T15:34:50.467Z,79076.44
2022-11-04T15:37:18.456Z,79067.75
2022-11-04T15:39:48.398Z,76695.84
2022-11-04T15:42:42.912Z,76022.63
2022-11-04T15:45:29.385Z,78721.03
2022-11-04T15:48:29.658Z,76018.78
2022-11-04T15:51:25.133Z,72965.34
2022-11-04T15:53:55.516Z,71286.09
2022-11-04T15:56:25.873Z,76693.88
2022-11-04T15:58:55.964Z,71947.78
2022-11-04T16:01:24.338Z,70947.38
2022-11-04T16:03:54.104Z,71612.72
2022-11-04T16:06:35.093Z,70608.69
2022-11-04T16:09:05.342Z,69590.50
2022-11-04T16:11:32.896Z,67908.50
2022-11-04T16:14:22.861Z,69912.50
2022-11-04T16:16:52.387Z,68902.34
2022-11-04T16:19:23.594Z,68559.31
2022-11-04T16:22:00.176Z,67562.06
2022-11-04T16:24:31.266Z,67565.50
2022-11-04T16:26:58.903Z,68255.03
2022-11-04T16:29:30.211Z,70283.13
2022-11-04T16:32:17.629Z,69608.16
2022-11-04T16:34:45.774Z,66571.91
2022-11-04T16:37:13.720Z,67912.50
2022-11-04T16:39:41.587Z,69616.41
2022-11-04T16:42:12.339Z,69589.28
2022-11-04T16:44:41.561Z,69275.97
2022-11-04T16:47:11.433Z,70284.91
2022-11-04T16:49:38.969Z,70282.53
2022-11-04T16:52:13.481Z,70945.56
2022-11-04T16:54:41.030Z,70945.56
2022-11-04T16:57:11.750Z,71606.66
2022-11-04T16:59:40.993Z,70274.81
2022-11-04T17:02:18.772Z,70937.16
2022-11-04T17:04:46.569Z,70597.94
2022-11-04T17:07:14.031Z,70923.97
2022-11-04T17:09:41.855Z,70253.41
2022-11-04T17:12:09.706Z,70253.41
2022-11-04T17:14:37.208Z,69589.28
2022-11-04T17:17:06.759Z,69575.19
2022-11-04T17:19:34.978Z,69588.13
2022-11-04T17:22:05.258Z,69255.47
2022-11-04T17:24:32.758Z,69581.66
2022-11-04T17:27:00.501Z,69912.50
2022-11-04T17:29:29.800Z,69913.69
2022-11-04T17:31:57.343Z,69573.41
2022-11-04T17:34:26.681Z,69565.75
2022-11-04T17:36:54.625Z,70242.69
2022-11-04T17:39:22.490Z,70236.16
2022-11-04T17:42:07.561Z,70233.19
2022-11-04T17:44:35.075Z,69561.03
2022-11-04T17:47:02.565Z,69565.16
2022-11-04T17:49:31.739Z,70233.78
2022-11-04T17:52:01.084Z,69566.34
2022-11-04T17:54:30.484Z,68887.78
2022-11-04T17:56:58.107Z,69209.19
2022-11-04T17:59:25.829Z,70564.50
2022-11-04T18:01:55.337Z,70553.75
2022-11-04T18:04:24.364Z,70218.94
2022-11-04T18:06:57.192Z,69197.47
2022-11-04T18:09:29.115Z,68861.56
2022-11-04T18:12:14.293Z,68182.25
2022-11-04T18:14:41.803Z,68530.88
2022-11-04T18:17:09.331Z,67513.47
2022-11-04T18:19:37.789Z,69209.75
2022-11-04T18:22:06.934Z,68201.91
2022-11-04T18:24:34.844Z,69532.81
2022-11-04T18:27:02.506Z,70210.59
2022-11-04T18:29:30.014Z,68868.56
2022-11-04T18:31:57.506Z,70548.97
2022-11-04T18:34:24.991Z,70539.44
2022-11-04T18:36:52.458Z,69529.28
2022-11-04T18:39:21.277Z,67502.03
2022-11-04T18:41:48.918Z,69199.81
2022-11-04T18:44:20.082Z,70875.97
2022-11-04T18:46:48.459Z,69531.63
2022-11-04T18:49:16.952Z,69182.84
2022-11-04T18:51:44.587Z,67492.31
2022-11-04T18:54:13.016Z,66494.75
2022-11-04T18:56:42.053Z,68520.44
2022-11-04T18:59:10.468Z,69196.28
2022-11-04T19:01:38.296Z,69193.97
2022-11-04T19:04:06.674Z,66493.59
2022-11-04T19:06:36.053Z,65808.75
2022-11-04T19:09:32.430Z,67483.19
2022-11-04T19:12:13.308Z,66161.78
2022-11-04T19:14:40.877Z,66489.66
2022-11-04T19:17:08.449Z,66155.06
2022-11-04T19:19:35.925Z,66829.91
2022-11-04T19:22:03.406Z,67831.50
2022-11-04T19:24:30.903Z,67157.72
2022-11-04T19:27:00.113Z,65825.50
2022-11-04T19:29:28.945Z,66144.44
2022-11-04T19:31:56.515Z,65140.22
2022-11-04T19:34:24.283Z,64810.63
2022-11-04T19:36:51.904Z,65485.31
2022-11-04T19:39:19.400Z,65821.56
2022-11-04T19:42:04.670Z,64813.38
2022-11-04T19:44:33.610Z,66496.41
2022-11-04T19:47:05.073Z,63798.81
2022-11-04T19:49:32.598Z,64131.72
2022-11-04T19:52:00.885Z,64142.56
2022-11-04T19:54:29.306Z,64136.06
2022-11-04T19:56:57.058Z,64819.97
2022-11-04T19:59:25.522Z,64146.38
2022-11-04T20:01:54.426Z,64488.06
2022-11-04T20:04:22.189Z,65819.34
2022-11-04T20:06:49.670Z,64136.63
2022-11-04T20:09:17.157Z,65151.25
2022-11-04T20:11:58.619Z,65832.72
2022-11-04T20:14:27.571Z,65147.97
2022-11-04T20:16:56.754Z,65492.53
2022-11-04T20:19:24.517Z,66170.75
2022-11-04T20:21:52.281Z,64818.31
2022-11-04T20:24:20.310Z,64485.34
2022-11-04T20:26:47.936Z,64151.81
2022-11-04T20:29:16.503Z,64821.63
2022-11-04T20:31:44.688Z,66849.72
2022-11-04T20:34:14.670Z,66836.13
2022-11-04T20:36:42.646Z,67182.75
2022-11-04T20:42:06.230Z,65827.16
2022-11-04T20:44:33.842Z,65836.09
2022-11-04T20:47:01.296Z,65504.19
2022-11-04T20:49:30.100Z,66170.75
2022-11-04T20:51:57.685Z,67196.38
2022-11-04T20:54:26.694Z,67183.88
2022-11-04T20:56:54.382Z,66169.06
2022-11-04T20:59:21.856Z,66853.69
2022-11-04T21:04:42.360Z,66851.97
2022-11-04T21:07:09.877Z,68872.06
2022-11-04T21:09:37.728Z,68535.53
2022-11-04T21:12:05.848Z,68533.78
2022-11-04T21:14:37.158Z,66505.44
2022-11-04T21:17:06.419Z,69872.28
2022-11-04T21:19:34.042Z,66832.19
2022-11-04T21:22:03.160Z,66504.31
2022-11-04T21:24:37.943Z,68523.34
2022-11-04T21:27:06.556Z,69863.41
2022-11-04T21:29:33.987Z,67842.97
2022-11-04T21:32:01.671Z,68858.66
2022-11-04T21:34:29.146Z,68201.91
2022-11-04T21:36:56.685Z,67185.00
2022-11-04T21:39:26.382Z,67851.03
2022-11-04T21:41:54.117Z,69210.94
2022-11-04T21:44:21.568Z,66851.44
2022-11-04T21:46:55.082Z,66160.66
2022-11-04T21:49:22.519Z,66502.06
2022-11-04T21:51:52.162Z,67502.03
2022-11-04T21:54:19.701Z,67164.56
2022-11-04T21:56:51.455Z,67508.31
2022-11-04T21:59:19.024Z,66822.00
2022-11-04T22:01:46.582Z,66156.19
2022-11-04T22:04:14.230Z,68177.06
2022-11-04T22:06:41.702Z,67842.97
2022-11-04T22:09:10.471Z,66817.47
2022-11-04T22:11:39.391Z,68501.88
2022-11-04T22:14:09.443Z,66487.41
2022-11-04T22:16:40.727Z,67151.47
2022-11-04T22:19:10.696Z,66142.75
2022-11-04T22:21:40.765Z,66146.13
2022-11-04T22:24:10.952Z,65818.81
2022-11-04T22:26:39.284Z,67833.81
2022-11-04T22:29:08.248Z,66828.22
2022-11-04T22:31:37.560Z,66165.16
2022-11-04T22:34:06.387Z,67166.25
2022-11-04T22:36:34.875Z,66168.50
2022-11-04T22:39:03.212Z,66166.81
2022-11-04T22:41:32.533Z,66155.06
2022-11-04T22:46:53.429Z,66818.59
2022-11-04T22:49:21.364Z,67487.16
2022-11-04T22:51:49.096Z,65799.28
2022-11-04T22:54:17.090Z,68158.63
2022-11-04T22:56:44.527Z,67162.28
2022-11-04T22:59:12.495Z,66809.00
2022-11-04T23:01:40.107Z,66475.03
2022-11-04T23:07:02.942Z,67138.38
2022-11-04T23:09:31.723Z,65794.84
2022-11-04T23:12:16.796Z,66132.66
2022-11-04T23:15:10.024Z,66802.78
2022-11-04T23:17:55.284Z,67485.47
2022-11-04T23:20:27.595Z,65119.28
2022-11-04T23:23:12.825Z,65799.28
2022-11-04T23:25:40.967Z,65463.69
2022-11-04T23:28:26.215Z,65129.19
2022-11-04T23:30:53.702Z,65121.47
2022-11-04T23:33:41.600Z,66464.34
2022-11-04T23:36:27.526Z,65783.69
2022-11-04T23:38:54.965Z,65445.94
2022-11-04T23:41:39.987Z,65126.44
2022-11-04T23:44:27.979Z,64447.13
2022-11-04T23:47:13.293Z,64440.56
2022-11-04T23:49:57.895Z,65114.88
2022-11-04T23:52:44.560Z,65108.81
2022-11-04T23:55:29.669Z,64768.38
2022-11-04T23:58:16.787Z,65444.84
